Flight Track Log - Related Links

Times and Time Zones

All times are in EDT time to prevent confusion due to time zone crossing. See the N356TB flight status page for this flight to view local times or setup timezone preferences in your user account.

Time Position Orientation Groundspeed Altitude Reporting Facility
EDT Latitude Longitude Course Direction KTS MPH feet Rate Location/Type
Sun 07:35:10 PM 42.2158 -86.2408 176° South 110 127 3,700  Level Chicago Center
Sun 07:36:12 PM 42.1853 -86.2367 174° South 110 127 4,400 532 Climbing Chicago Center
Sun 07:37:14 PM 42.1556 -86.2367 180° South 107 123 4,800 242 Climbing Chicago Center
Sun 07:38:16 PM 42.1228 -86.2322 174° South 115 132 4,900 48 Climbing Chicago Center
Sun 07:39:00 PM 42.1432 -86.2369 176° South  Level Estimated
Sun 07:39:19 PM 42.0794 -86.2294 177° South 127 146 4,900  Level Chicago Center
Sun 07:40:00 PM 42.1086 -86.2337 176° South  Level Estimated
Sun 07:40:21 PM 42.0436 -86.2258 176° South 130 150 4,900  Level Chicago Center
Sun 07:41:23 PM 42.0078 -86.2236 177° South 129 148 4,900  Level Chicago Center
Sun 07:42:25 PM 41.9714 -86.2200 176° South 130 150 4,900  Level Chicago Center
Sun 07:43:27 PM 41.9364 -86.2158 175° South 128 147 4,900  Level Chicago Center
Sun 07:44:29 PM 41.9006 -86.2136 177° South 128 147 4,900  Level Chicago Center
Sun 07:45:31 PM 41.8594 -86.2094 176° South 124 143 4,900  Level Chicago Center
Sun 07:46:33 PM 41.8239 -86.2053 175° South 127 146 4,900  Level Chicago Center
Sun 07:47:35 PM 41.7886 -86.2017 176° South 128 147 4,900  Level Chicago Center
Sun 07:48:37 PM 41.7525 -86.1986 176° South 131 151 4,900  Level Chicago Center
Sun 07:49:39 PM 41.7161 -86.1961 177° South 130 150 4,900  Level Chicago Center
Sun 07:50:42 PM 41.6742 -86.1903 174° South 126 145 4,900  Level Chicago Center
Sun 07:51:44 PM 41.6383 -86.1911 181° South 128 147 4,900  Level Chicago Center
Sun 07:52:46 PM 41.6031 -86.1858 174° South 128 147 4,900  Level Chicago Center
Sun 07:53:48 PM 41.5683 -86.1839 178° South 126 145 4,900  Level Chicago Center
Sun 07:54:50 PM 41.5325 -86.1803 176° South 128 147 4,900  Level Chicago Center
Sun 07:55:52 PM 41.4972 -86.1769 176° South 128 147 4,900  Level Chicago Center
Sun 07:56:54 PM 41.4547 -86.1733 176° South 129 148 4,900  Level Chicago Center
Sun 07:57:56 PM 41.4189 -86.1700 176° South 129 148 4,900  Level Chicago Center
Sun 07:58:58 PM 41.3842 -86.1669 176° South 126 145 4,900  Level Chicago Center
Sun 08:00:01 PM 41.3489 -86.1636 176° South 127 146 4,900  Level Chicago Center
Sun 08:01:03 PM 41.3133 -86.1600 176° South 128 147 4,900  Level Chicago Center
Sun 08:02:05 PM 41.2711 -86.1572 177° South 127 146 4,900  Level Chicago Center
Sun 08:03:08 PM 41.2364 -86.1533 175° South 127 146 4,900  Level Chicago Center
Sun 08:04:10 PM 41.2028 -86.1514 178° South 124 143 4,900  Level Chicago Center
Sun 08:05:12 PM 41.1686 -86.1492 177° South 123 142 4,900 -62 Level Chicago Center
Sun 08:05:47 PM 41.1442 -86.1464 175° South 125 144 4,800 -63 Descending Chicago Center
Sun 08:06:47 PM 41.1086 -86.1444 178° South 127 146 4,800  Level Chicago Center
Sun 08:07:48 PM 41.0714 -86.1394 174° South 129 148 4,800 66 Level Chicago Center
Sun 08:08:18 PM 41.0533 -86.1378 176° South 130 150 4,900  Climbing Chicago Center
Sun 08:08:49 PM 41.0358 -86.1375 179° South 129 148 4,800  Descending Chicago Center
Sun 08:09:20 PM 41.0181 -86.1342 172° South 131 151 4,900 65 Climbing Chicago Center
Sun 08:10:22 PM 40.9847 -86.1331 179° South 126 145 4,900  Level Chicago Center
Sun 08:11:24 PM 40.9494 -86.1292 175° South 125 144 4,900  Level Chicago Center
Sun 08:12:26 PM 40.9142 -86.1275 178° South 126 145 4,900  Level Chicago Center
Sun 08:13:28 PM 40.8714 -86.1233 176° South 128 147 4,900  Level Chicago Center
Sun 08:14:30 PM 40.8350 -86.1200 176° South 130 150 4,900  Level Chicago Center
Sun 08:15:33 PM 40.8000 -86.1175 177° South 128 147 4,900  Level Chicago Center
Sun 08:16:35 PM 40.7633 -86.1144 176° South 130 150 4,900  Level Chicago Center
Sun 08:17:37 PM 40.7272 -86.1108 176° South 131 151 4,900 -48 Level Chicago Center
Sun 08:18:39 PM 40.6861 -86.1067 176° South 128 147 4,800 -48 Descending Chicago Center
Sun 08:19:41 PM 40.6500 -86.1042 177° South 130 150 4,800  Level Chicago Center
Sun 08:20:43 PM 40.6142 -86.1019 177° South 129 148 4,800  Level Chicago Center
Sun 08:21:45 PM 40.5794 -86.0964 173° South 127 146 4,800  Level Chicago Center
Sun 08:22:47 PM 40.5439 -86.0956 179° South 127 146 4,800  Level Chicago Center
Sun 08:23:58 PM 40.4969 -86.0917 176° South 129 148 4,800  Level Chicago Center
Sun 08:24:51 PM 40.4653 -86.0869 174° South 129 148 4,800  Level Chicago Center
Sun 08:25:53 PM 40.4292 -86.0853 178° South 129 148 4,800  Level Chicago Center
Sun 08:26:56 PM 40.3939 -86.0814 175° South 128 147 4,800  Level Chicago Center
Sun 08:27:58 PM 40.3575 -86.0792 177° South 130 150 4,800  Level Chicago Center
Sun 08:29:00 PM 40.3203 -86.0756 176° South 133 153 4,800  Level Chicago Center
Sun 08:30:02 PM 40.2769 -86.0719 176° South 131 151 4,800  Level Chicago Center
Sun 08:31:04 PM 40.2414 -86.0692 177° South 129 148 4,800  Level Chicago Center
Sun 08:32:06 PM 40.2053 -86.0658 176° South 129 148 4,800 -194 Level Chicago Center
Sun 08:33:08 PM 40.1681 -86.0650 179° South 130 150 4,400 -435 Descending Chicago Center
Sun 08:34:10 PM 40.1283 -86.0619 177° South 136 157 3,900 -290 Descending Chicago Center
Sun 08:35:12 PM 40.0942 -86.0439 158° South 133 153 3,800 -339 Descending Chicago Center
Sun 08:36:14 PM 40.0500 -86.0486 185° South 134 154 3,200 -581 Descending Chicago Center
Sun 08:37:16 PM 40.0117 -86.0614 194° South 138 159 2,600 -581 Descending Chicago Center

Login

Don't have an account? Register now (free) for customized features, flight alerts, and more!